sensor_id;sensor_type;location;lat;lon;timestamp;P1;durP1;ratioP1;P2;durP2;ratioP2
9150;SDS011;4610;50.006;7.490;2022-11-15T00:01:57;8.70;;;5.87;;
9150;SDS011;4610;50.006;7.490;2022-11-15T00:04:25;9.40;;;6.50;;
9150;SDS011;4610;50.006;7.490;2022-11-15T00:06:52;10.27;;;7.20;;
9150;SDS011;4610;50.006;7.490;2022-11-15T00:09:19;9.23;;;6.80;;
9150;SDS011;4610;50.006;7.490;2022-11-15T00:11:45;11.60;;;7.27;;
9150;SDS011;4610;50.006;7.490;2022-11-15T00:14:12;9.57;;;7.10;;
9150;SDS011;4610;50.006;7.490;2022-11-15T00:16:39;9.83;;;6.93;;
9150;SDS011;4610;50.006;7.490;2022-11-15T00:19:06;8.53;;;6.53;;
9150;SDS011;4610;50.006;7.490;2022-11-15T00:21:34;9.83;;;6.70;;
9150;SDS011;4610;50.006;7.490;2022-11-15T00:24:01;11.27;;;7.57;;
9150;SDS011;4610;50.006;7.490;2022-11-15T00:26:28;9.07;;;6.70;;
9150;SDS011;4610;50.006;7.490;2022-11-15T00:28:54;10.80;;;6.80;;
9150;SDS011;4610;50.006;7.490;2022-11-15T00:31:21;9.30;;;7.13;;
9150;SDS011;4610;50.006;7.490;2022-11-15T00:33:48;12.70;;;6.83;;
9150;SDS011;4610;50.006;7.490;2022-11-15T00:36:15;11.27;;;6.53;;
9150;SDS011;4610;50.006;7.490;2022-11-15T00:38:43;10.03;;;6.20;;
9150;SDS011;4610;50.006;7.490;2022-11-15T00:41:10;8.00;;;6.40;;
9150;SDS011;4610;50.006;7.490;2022-11-15T00:43:36;8.33;;;5.93;;
9150;SDS011;4610;50.006;7.490;2022-11-15T00:46:04;10.87;;;6.10;;
9150;SDS011;4610;50.006;7.490;2022-11-15T00:48:33;8.67;;;6.63;;
9150;SDS011;4610;50.006;7.490;2022-11-15T00:50:59;10.10;;;6.80;;
9150;SDS011;4610;50.006;7.490;2022-11-15T00:53:26;8.83;;;6.73;;
9150;SDS011;4610;50.006;7.490;2022-11-15T00:55:54;8.63;;;5.93;;
9150;SDS011;4610;50.006;7.490;2022-11-15T00:58:21;9.87;;;6.23;;
9150;SDS011;4610;50.006;7.490;2022-11-15T01:00:48;13.23;;;5.77;;
9150;SDS011;4610;50.006;7.490;2022-11-15T01:03:15;9.47;;;6.00;;
9150;SDS011;4610;50.006;7.490;2022-11-15T01:05:42;9.67;;;5.80;;
9150;SDS011;4610;50.006;7.490;2022-11-15T01:08:11;7.70;;;5.23;;
9150;SDS011;4610;50.006;7.490;2022-11-15T01:10:39;6.87;;;5.03;;
9150;SDS011;4610;50.006;7.490;2022-11-15T01:13:07;11.30;;;5.13;;
9150;SDS011;4610;50.006;7.490;2022-11-15T01:15:34;8.17;;;5.40;;
9150;SDS011;4610;50.006;7.490;2022-11-15T01:18:05;7.67;;;4.47;;
9150;SDS011;4610;50.006;7.490;2022-11-15T01:20:32;7.77;;;5.13;;
9150;SDS011;4610;50.006;7.490;2022-11-15T01:22:59;6.80;;;4.70;;
9150;SDS011;4610;50.006;7.490;2022-11-15T01:25:26;8.27;;;5.33;;
9150;SDS011;4610;50.006;7.490;2022-11-15T01:27:53;7.57;;;5.07;;
9150;SDS011;4610;50.006;7.490;2022-11-15T01:30:21;10.87;;;4.87;;
9150;SDS011;4610;50.006;7.490;2022-11-15T01:32:47;8.57;;;5.03;;
9150;SDS011;4610;50.006;7.490;2022-11-15T01:35:14;9.57;;;5.17;;
9150;SDS011;4610;50.006;7.490;2022-11-15T01:37:41;8.80;;;4.90;;
9150;SDS011;4610;50.006;7.490;2022-11-15T01:40:08;7.17;;;4.97;;
9150;SDS011;4610;50.006;7.490;2022-11-15T01:42:36;7.87;;;4.73;;
9150;SDS011;4610;50.006;7.490;2022-11-15T01:45:03;8.80;;;4.70;;
9150;SDS011;4610;50.006;7.490;2022-11-15T01:47:33;6.10;;;4.37;;
9150;SDS011;4610;50.006;7.490;2022-11-15T01:50:02;6.63;;;5.00;;
9150;SDS011;4610;50.006;7.490;2022-11-15T01:52:32;6.33;;;4.60;;
9150;SDS011;4610;50.006;7.490;2022-11-15T01:55:02;5.77;;;3.97;;
9150;SDS011;4610;50.006;7.490;2022-11-15T01:57:31;7.80;;;4.33;;
9150;SDS011;4610;50.006;7.490;2022-11-15T01:59:58;7.30;;;4.00;;
9150;SDS011;4610;50.006;7.490;2022-11-15T02:02:27;5.53;;;3.93;;
9150;SDS011;4610;50.006;7.490;2022-11-15T02:04:55;10.63;;;4.27;;
9150;SDS011;4610;50.006;7.490;2022-11-15T02:07:22;5.33;;;3.57;;
9150;SDS011;4610;50.006;7.490;2022-11-15T02:09:49;5.07;;;3.90;;
9150;SDS011;4610;50.006;7.490;2022-11-15T02:12:18;5.60;;;4.07;;
9150;SDS011;4610;50.006;7.490;2022-11-15T02:14:47;5.33;;;3.77;;
9150;SDS011;4610;50.006;7.490;2022-11-15T02:17:21;6.57;;;4.10;;
9150;SDS011;4610;50.006;7.490;2022-11-15T02:20:14;6.43;;;3.77;;
9150;SDS011;4610;50.006;7.490;2022-11-15T02:23:09;5.17;;;3.53;;
9150;SDS011;4610;50.006;7.490;2022-11-15T02:25:50;4.93;;;3.60;;
9150;SDS011;4610;50.006;7.490;2022-11-15T02:28:36;6.23;;;3.57;;
9150;SDS011;4610;50.006;7.490;2022-11-15T02:31:20;4.17;;;3.27;;
9150;SDS011;4610;50.006;7.490;2022-11-15T02:33:54;8.67;;;3.23;;
9150;SDS011;4610;50.006;7.490;2022-11-15T02:36:31;7.10;;;3.87;;
9150;SDS011;4610;50.006;7.490;2022-11-15T02:39:07;5.27;;;3.50;;
9150;SDS011;4610;50.006;7.490;2022-11-15T02:41:39;4.93;;;3.43;;
9150;SDS011;4610;50.006;7.490;2022-11-15T02:44:13;5.33;;;3.50;;
9150;SDS011;4610;50.006;7.490;2022-11-15T02:46:48;5.33;;;2.93;;
9150;SDS011;4610;50.006;7.490;2022-11-15T02:49:35;4.67;;;3.30;;
9150;SDS011;4610;50.006;7.490;2022-11-15T02:52:03;7.00;;;3.33;;
9150;SDS011;4610;50.006;7.490;2022-11-15T02:54:31;4.77;;;3.03;;
9150;SDS011;4610;50.006;7.490;2022-11-15T02:56:59;5.03;;;3.10;;
9150;SDS011;4610;50.006;7.490;2022-11-15T02:59:50;3.37;;;2.90;;
9150;SDS011;4610;50.006;7.490;2022-11-15T03:02:34;6.23;;;3.00;;
9150;SDS011;4610;50.006;7.490;2022-11-15T03:05:10;5.17;;;3.07;;
9150;SDS011;4610;50.006;7.490;2022-11-15T03:07:44;3.70;;;3.00;;
9150;SDS011;4610;50.006;7.490;2022-11-15T03:10:17;6.60;;;3.07;;
9150;SDS011;4610;50.006;7.490;2022-11-15T03:12:50;3.83;;;2.93;;
9150;SDS011;4610;50.006;7.490;2022-11-15T03:15:22;4.53;;;3.10;;
9150;SDS011;4610;50.006;7.490;2022-11-15T03:17:55;6.20;;;3.17;;
9150;SDS011;4610;50.006;7.490;2022-11-15T03:20:26;5.67;;;3.27;;
9150;SDS011;4610;50.006;7.490;2022-11-15T03:22:55;4.43;;;2.67;;
9150;SDS011;4610;50.006;7.490;2022-11-15T03:25:26;3.97;;;2.87;;
9150;SDS011;4610;50.006;7.490;2022-11-15T03:27:55;3.33;;;2.63;;
9150;SDS011;4610;50.006;7.490;2022-11-15T03:30:24;6.63;;;3.33;;
9150;SDS011;4610;50.006;7.490;2022-11-15T03:32:53;3.60;;;2.67;;
9150;SDS011;4610;50.006;7.490;2022-11-15T03:35:24;4.03;;;2.57;;
9150;SDS011;4610;50.006;7.490;2022-11-15T03:37:54;6.57;;;2.70;;
9150;SDS011;4610;50.006;7.490;2022-11-15T03:40:25;3.30;;;2.40;;
9150;SDS011;4610;50.006;7.490;2022-11-15T03:42:59;3.67;;;2.20;;
9150;SDS011;4610;50.006;7.490;2022-11-15T03:45:31;5.13;;;2.70;;
9150;SDS011;4610;50.006;7.490;2022-11-15T03:48:05;3.40;;;2.43;;
9150;SDS011;4610;50.006;7.490;2022-11-15T03:50:36;5.50;;;2.40;;
9150;SDS011;4610;50.006;7.490;2022-11-15T03:53:04;4.70;;;2.90;;
9150;SDS011;4610;50.006;7.490;2022-11-15T03:55:31;3.10;;;2.37;;
9150;SDS011;4610;50.006;7.490;2022-11-15T03:57:59;5.30;;;2.53;;
9150;SDS011;4610;50.006;7.490;2022-11-15T04:00:27;4.77;;;2.70;;
9150;SDS011;4610;50.006;7.490;2022-11-15T04:02:54;3.67;;;2.60;;
9150;SDS011;4610;50.006;7.490;2022-11-15T04:05:22;3.97;;;2.67;;
9150;SDS011;4610;50.006;7.490;2022-11-15T04:07:49;3.60;;;2.77;;
9150;SDS011;4610;50.006;7.490;2022-11-15T04:10:16;4.33;;;2.50;;
9150;SDS011;4610;50.006;7.490;2022-11-15T04:12:43;3.83;;;2.47;;
9150;SDS011;4610;50.006;7.490;2022-11-15T04:15:13;5.50;;;2.80;;
9150;SDS011;4610;50.006;7.490;2022-11-15T04:17:44;2.83;;;2.40;;
9150;SDS011;4610;50.006;7.490;2022-11-15T04:20:12;2.90;;;2.43;;
9150;SDS011;4610;50.006;7.490;2022-11-15T04:23:00;3.17;;;2.33;;
9150;SDS011;4610;50.006;7.490;2022-11-15T04:25:45;4.63;;;2.93;;
9150;SDS011;4610;50.006;7.490;2022-11-15T04:28:15;3.47;;;2.33;;
9150;SDS011;4610;50.006;7.490;2022-11-15T04:30:42;2.83;;;2.53;;
9150;SDS011;4610;50.006;7.490;2022-11-15T04:33:09;2.97;;;2.37;;
9150;SDS011;4610;50.006;7.490;2022-11-15T04:35:36;3.77;;;2.63;;
9150;SDS011;4610;50.006;7.490;2022-11-15T04:38:05;3.23;;;2.73;;
9150;SDS011;4610;50.006;7.490;2022-11-15T04:40:34;5.07;;;2.77;;
9150;SDS011;4610;50.006;7.490;2022-11-15T04:43:01;4.77;;;2.40;;
9150;SDS011;4610;50.006;7.490;2022-11-15T04:45:28;2.73;;;2.20;;
9150;SDS011;4610;50.006;7.490;2022-11-15T04:47:54;3.00;;;2.70;;
9150;SDS011;4610;50.006;7.490;2022-11-15T04:50:21;4.23;;;2.53;;
9150;SDS011;4610;50.006;7.490;2022-11-15T04:52:50;3.30;;;2.50;;
9150;SDS011;4610;50.006;7.490;2022-11-15T04:55:20;6.53;;;2.60;;
9150;SDS011;4610;50.006;7.490;2022-11-15T04:57:47;3.40;;;2.50;;
9150;SDS011;4610;50.006;7.490;2022-11-15T05:00:14;3.50;;;2.57;;
9150;SDS011;4610;50.006;7.490;2022-11-15T05:02:43;6.63;;;2.80;;
9150;SDS011;4610;50.006;7.490;2022-11-15T05:05:23;4.77;;;3.10;;
9150;SDS011;4610;50.006;7.490;2022-11-15T05:07:51;5.03;;;2.73;;
9150;SDS011;4610;50.006;7.490;2022-11-15T05:10:17;5.03;;;3.00;;
9150;SDS011;4610;50.006;7.490;2022-11-15T05:12:46;4.27;;;2.70;;
9150;SDS011;4610;50.006;7.490;2022-11-15T05:15:12;4.37;;;2.90;;
9150;SDS011;4610;50.006;7.490;2022-11-15T05:17:39;3.63;;;2.90;;
9150;SDS011;4610;50.006;7.490;2022-11-15T05:20:07;4.87;;;2.73;;
9150;SDS011;4610;50.006;7.490;2022-11-15T05:22:34;3.80;;;2.57;;
9150;SDS011;4610;50.006;7.490;2022-11-15T05:25:01;4.33;;;2.57;;
9150;SDS011;4610;50.006;7.490;2022-11-15T05:27:30;7.20;;;2.70;;
9150;SDS011;4610;50.006;7.490;2022-11-15T05:29:57;4.90;;;2.67;;
9150;SDS011;4610;50.006;7.490;2022-11-15T05:32:24;4.87;;;2.60;;
9150;SDS011;4610;50.006;7.490;2022-11-15T05:34:51;5.57;;;3.33;;
9150;SDS011;4610;50.006;7.490;2022-11-15T05:37:18;5.53;;;3.60;;
9150;SDS011;4610;50.006;7.490;2022-11-15T05:39:44;4.23;;;2.87;;
9150;SDS011;4610;50.006;7.490;2022-11-15T05:42:12;5.93;;;3.43;;
9150;SDS011;4610;50.006;7.490;2022-11-15T05:47:11;8.33;;;3.00;;
9150;SDS011;4610;50.006;7.490;2022-11-15T05:49:41;5.03;;;2.90;;
9150;SDS011;4610;50.006;7.490;2022-11-15T05:52:11;6.50;;;3.30;;
9150;SDS011;4610;50.006;7.490;2022-11-15T05:54:41;4.30;;;3.37;;
9150;SDS011;4610;50.006;7.490;2022-11-15T05:57:08;4.60;;;3.40;;
9150;SDS011;4610;50.006;7.490;2022-11-15T05:59:35;3.33;;;3.03;;
9150;SDS011;4610;50.006;7.490;2022-11-15T06:02:04;4.03;;;3.17;;
9150;SDS011;4610;50.006;7.490;2022-11-15T06:04:31;4.53;;;2.70;;
9150;SDS011;4610;50.006;7.490;2022-11-15T06:06:58;5.93;;;3.73;;
9150;SDS011;4610;50.006;7.490;2022-11-15T06:09:25;4.10;;;3.27;;
9150;SDS011;4610;50.006;7.490;2022-11-15T06:11:51;5.53;;;3.27;;
9150;SDS011;4610;50.006;7.490;2022-11-15T06:14:18;4.30;;;3.50;;
9150;SDS011;4610;50.006;7.490;2022-11-15T06:16:45;4.57;;;3.03;;
9150;SDS011;4610;50.006;7.490;2022-11-15T06:19:13;7.23;;;3.37;;
9150;SDS011;4610;50.006;7.490;2022-11-15T06:21:40;4.70;;;2.83;;
9150;SDS011;4610;50.006;7.490;2022-11-15T06:24:07;5.90;;;3.00;;
9150;SDS011;4610;50.006;7.490;2022-11-15T06:26:34;5.03;;;3.00;;
9150;SDS011;4610;50.006;7.490;2022-11-15T06:29:01;4.80;;;2.93;;
9150;SDS011;4610;50.006;7.490;2022-11-15T06:31:29;3.90;;;3.00;;
9150;SDS011;4610;50.006;7.490;2022-11-15T06:33:56;6.00;;;3.17;;
9150;SDS011;4610;50.006;7.490;2022-11-15T06:36:24;4.50;;;3.13;;
9150;SDS011;4610;50.006;7.490;2022-11-15T06:38:50;3.53;;;3.00;;
9150;SDS011;4610;50.006;7.490;2022-11-15T06:41:17;4.50;;;3.30;;
9150;SDS011;4610;50.006;7.490;2022-11-15T06:43:46;3.80;;;2.40;;
9150;SDS011;4610;50.006;7.490;2022-11-15T06:46:12;4.33;;;2.73;;
9150;SDS011;4610;50.006;7.490;2022-11-15T06:48:39;4.73;;;2.53;;
9150;SDS011;4610;50.006;7.490;2022-11-15T06:51:06;4.07;;;3.00;;
9150;SDS011;4610;50.006;7.490;2022-11-15T06:53:34;5.53;;;3.43;;
9150;SDS011;4610;50.006;7.490;2022-11-15T06:56:03;5.20;;;3.40;;
9150;SDS011;4610;50.006;7.490;2022-11-15T06:58:32;4.60;;;3.17;;
9150;SDS011;4610;50.006;7.490;2022-11-15T07:01:00;5.40;;;3.23;;
9150;SDS011;4610;50.006;7.490;2022-11-15T07:03:27;5.07;;;3.70;;
9150;SDS011;4610;50.006;7.490;2022-11-15T07:05:54;6.80;;;3.33;;
9150;SDS011;4610;50.006;7.490;2022-11-15T07:08:23;5.30;;;3.50;;
9150;SDS011;4610;50.006;7.490;2022-11-15T07:10:53;6.70;;;4.00;;
9150;SDS011;4610;50.006;7.490;2022-11-15T07:13:23;6.23;;;3.30;;
9150;SDS011;4610;50.006;7.490;2022-11-15T07:15:50;4.30;;;3.17;;
9150;SDS011;4610;50.006;7.490;2022-11-15T07:18:17;5.23;;;3.37;;
9150;SDS011;4610;50.006;7.490;2022-11-15T07:20:44;4.13;;;3.50;;
9150;SDS011;4610;50.006;7.490;2022-11-15T07:23:11;4.50;;;3.30;;
9150;SDS011;4610;50.006;7.490;2022-11-15T07:25:38;6.00;;;3.50;;
9150;SDS011;4610;50.006;7.490;2022-11-15T07:28:06;5.63;;;3.67;;
9150;SDS011;4610;50.006;7.490;2022-11-15T07:30:33;5.50;;;3.20;;
9150;SDS011;4610;50.006;7.490;2022-11-15T07:33:00;7.60;;;3.47;;
9150;SDS011;4610;50.006;7.490;2022-11-15T07:35:27;5.43;;;3.17;;
9150;SDS011;4610;50.006;7.490;2022-11-15T07:37:55;6.10;;;3.37;;
9150;SDS011;4610;50.006;7.490;2022-11-15T07:40:23;4.40;;;3.20;;
9150;SDS011;4610;50.006;7.490;2022-11-15T07:42:50;6.03;;;3.30;;
9150;SDS011;4610;50.006;7.490;2022-11-15T07:45:22;7.57;;;3.50;;
9150;SDS011;4610;50.006;7.490;2022-11-15T07:47:50;5.20;;;3.27;;
9150;SDS011;4610;50.006;7.490;2022-11-15T07:50:17;5.67;;;3.37;;
9150;SDS011;4610;50.006;7.490;2022-11-15T07:52:44;4.23;;;3.50;;
9150;SDS011;4610;50.006;7.490;2022-11-15T07:55:11;5.43;;;3.73;;
9150;SDS011;4610;50.006;7.490;2022-11-15T07:57:38;8.23;;;3.80;;
9150;SDS011;4610;50.006;7.490;2022-11-15T08:00:05;5.67;;;3.57;;
9150;SDS011;4610;50.006;7.490;2022-11-15T08:02:34;4.87;;;3.23;;
9150;SDS011;4610;50.006;7.490;2022-11-15T08:05:01;6.03;;;2.83;;
9150;SDS011;4610;50.006;7.490;2022-11-15T08:07:29;3.53;;;2.80;;
9150;SDS011;4610;50.006;7.490;2022-11-15T08:09:56;5.67;;;3.23;;
9150;SDS011;4610;50.006;7.490;2022-11-15T08:12:23;4.97;;;2.97;;
9150;SDS011;4610;50.006;7.490;2022-11-15T08:14:50;5.17;;;3.00;;
9150;SDS011;4610;50.006;7.490;2022-11-15T08:17:17;3.53;;;2.70;;
9150;SDS011;4610;50.006;7.490;2022-11-15T08:19:45;5.27;;;3.07;;
9150;SDS011;4610;50.006;7.490;2022-11-15T08:22:12;6.87;;;2.30;;
9150;SDS011;4610;50.006;7.490;2022-11-15T08:24:38;3.40;;;2.70;;
9150;SDS011;4610;50.006;7.490;2022-11-15T08:27:05;3.63;;;2.70;;
9150;SDS011;4610;50.006;7.490;2022-11-15T08:29:40;5.93;;;3.10;;
9150;SDS011;4610;50.006;7.490;2022-11-15T08:32:07;2.97;;;2.67;;
9150;SDS011;4610;50.006;7.490;2022-11-15T08:34:34;6.27;;;2.70;;
9150;SDS011;4610;50.006;7.490;2022-11-15T08:37:03;8.40;;;2.80;;
9150;SDS011;4610;50.006;7.490;2022-11-15T08:39:29;3.33;;;2.80;;
9150;SDS011;4610;50.006;7.490;2022-11-15T08:41:56;3.90;;;2.43;;
9150;SDS011;4610;50.006;7.490;2022-11-15T08:44:23;7.33;;;3.20;;
9150;SDS011;4610;50.006;7.490;2022-11-15T08:46:50;3.43;;;2.63;;
9150;SDS011;4610;50.006;7.490;2022-11-15T08:49:17;5.57;;;2.80;;
9150;SDS011;4610;50.006;7.490;2022-11-15T08:51:44;5.50;;;2.53;;
9150;SDS011;4610;50.006;7.490;2022-11-15T08:54:12;4.07;;;2.90;;
9150;SDS011;4610;50.006;7.490;2022-11-15T08:56:39;5.10;;;3.17;;
9150;SDS011;4610;50.006;7.490;2022-11-15T08:59:05;4.07;;;2.90;;
9150;SDS011;4610;50.006;7.490;2022-11-15T09:01:32;5.40;;;3.13;;
9150;SDS011;4610;50.006;7.490;2022-11-15T09:03:59;3.93;;;3.00;;
9150;SDS011;4610;50.006;7.490;2022-11-15T09:06:26;4.10;;;2.37;;
9150;SDS011;4610;50.006;7.490;2022-11-15T09:08:52;3.43;;;2.67;;
9150;SDS011;4610;50.006;7.490;2022-11-15T09:11:21;3.47;;;2.80;;
9150;SDS011;4610;50.006;7.490;2022-11-15T09:13:48;5.20;;;2.90;;
9150;SDS011;4610;50.006;7.490;2022-11-15T09:16:15;4.47;;;2.83;;
9150;SDS011;4610;50.006;7.490;2022-11-15T09:18:41;5.57;;;3.07;;
9150;SDS011;4610;50.006;7.490;2022-11-15T09:21:09;5.07;;;3.13;;
9150;SDS011;4610;50.006;7.490;2022-11-15T09:23:36;3.30;;;2.70;;
9150;SDS011;4610;50.006;7.490;2022-11-15T09:26:03;5.53;;;2.80;;
9150;SDS011;4610;50.006;7.490;2022-11-15T09:28:33;5.70;;;3.00;;
9150;SDS011;4610;50.006;7.490;2022-11-15T09:31:00;4.27;;;2.77;;
9150;SDS011;4610;50.006;7.490;2022-11-15T09:33:29;4.97;;;2.73;;
9150;SDS011;4610;50.006;7.490;2022-11-15T09:35:59;3.70;;;3.00;;
9150;SDS011;4610;50.006;7.490;2022-11-15T09:38:27;4.70;;;2.90;;
9150;SDS011;4610;50.006;7.490;2022-11-15T09:40:58;4.47;;;2.97;;
9150;SDS011;4610;50.006;7.490;2022-11-15T09:43:43;6.10;;;3.00;;
9150;SDS011;4610;50.006;7.490;2022-11-15T09:46:19;4.07;;;3.20;;
9150;SDS011;4610;50.006;7.490;2022-11-15T09:48:54;4.80;;;3.03;;
9150;SDS011;4610;50.006;7.490;2022-11-15T09:51:27;4.57;;;3.13;;
9150;SDS011;4610;50.006;7.490;2022-11-15T09:53:57;4.40;;;3.20;;
9150;SDS011;4610;50.006;7.490;2022-11-15T09:56:29;4.27;;;3.13;;
9150;SDS011;4610;50.006;7.490;2022-11-15T09:59:01;5.73;;;2.80;;
9150;SDS011;4610;50.006;7.490;2022-11-15T10:01:42;4.63;;;3.10;;
9150;SDS011;4610;50.006;7.490;2022-11-15T10:04:14;4.67;;;3.20;;
9150;SDS011;4610;50.006;7.490;2022-11-15T10:06:42;7.60;;;3.67;;
9150;SDS011;4610;50.006;7.490;2022-11-15T10:09:21;5.30;;;3.20;;
9150;SDS011;4610;50.006;7.490;2022-11-15T10:11:54;6.30;;;3.60;;
9150;SDS011;4610;50.006;7.490;2022-11-15T10:14:25;4.50;;;2.57;;
9150;SDS011;4610;50.006;7.490;2022-11-15T10:19:53;7.13;;;3.43;;
9150;SDS011;4610;50.006;7.490;2022-11-15T10:22:27;3.40;;;2.83;;
9150;SDS011;4610;50.006;7.490;2022-11-15T10:25:10;5.83;;;3.00;;
9150;SDS011;4610;50.006;7.490;2022-11-15T10:27:43;6.57;;;3.00;;
9150;SDS011;4610;50.006;7.490;2022-11-15T10:30:15;6.07;;;2.80;;
9150;SDS011;4610;50.006;7.490;2022-11-15T10:32:44;5.67;;;2.83;;
9150;SDS011;4610;50.006;7.490;2022-11-15T10:35:16;3.67;;;2.77;;
9150;SDS011;4610;50.006;7.490;2022-11-15T10:37:45;5.33;;;2.67;;
9150;SDS011;4610;50.006;7.490;2022-11-15T10:40:15;5.77;;;2.50;;
9150;SDS011;4610;50.006;7.490;2022-11-15T10:42:44;6.37;;;2.30;;
9150;SDS011;4610;50.006;7.490;2022-11-15T10:45:27;3.43;;;2.40;;
9150;SDS011;4610;50.006;7.490;2022-11-15T10:48:18;3.57;;;2.60;;
9150;SDS011;4610;50.006;7.490;2022-11-15T10:50:50;4.07;;;2.40;;
9150;SDS011;4610;50.006;7.490;2022-11-15T10:53:20;3.47;;;2.20;;
9150;SDS011;4610;50.006;7.490;2022-11-15T10:55:54;3.07;;;2.30;;
9150;SDS011;4610;50.006;7.490;2022-11-15T10:58:29;2.90;;;1.90;;
9150;SDS011;4610;50.006;7.490;2022-11-15T11:01:09;4.87;;;2.10;;
9150;SDS011;4610;50.006;7.490;2022-11-15T11:03:38;3.30;;;2.10;;
9150;SDS011;4610;50.006;7.490;2022-11-15T11:06:08;2.60;;;1.70;;
9150;SDS011;4610;50.006;7.490;2022-11-15T11:08:36;4.73;;;1.87;;
9150;SDS011;4610;50.006;7.490;2022-11-15T11:11:04;2.27;;;1.70;;
9150;SDS011;4610;50.006;7.490;2022-11-15T11:13:32;3.17;;;2.10;;
9150;SDS011;4610;50.006;7.490;2022-11-15T11:18:55;3.00;;;1.60;;
9150;SDS011;4610;50.006;7.490;2022-11-15T11:21:34;2.40;;;1.93;;
9150;SDS011;4610;50.006;7.490;2022-11-15T11:24:13;2.63;;;1.83;;
9150;SDS011;4610;50.006;7.490;2022-11-15T11:26:55;3.40;;;1.60;;
9150;SDS011;4610;50.006;7.490;2022-11-15T11:29:41;3.03;;;1.83;;
9150;SDS011;4610;50.006;7.490;2022-11-15T11:32:22;2.13;;;1.60;;
9150;SDS011;4610;50.006;7.490;2022-11-15T11:35:05;2.87;;;2.03;;
9150;SDS011;4610;50.006;7.490;2022-11-15T11:37:40;3.10;;;1.77;;
9150;SDS011;4610;50.006;7.490;2022-11-15T11:40:16;4.87;;;1.80;;
9150;SDS011;4610;50.006;7.490;2022-11-15T11:42:53;5.20;;;2.10;;
9150;SDS011;4610;50.006;7.490;2022-11-15T11:45:40;2.37;;;1.57;;
9150;SDS011;4610;50.006;7.490;2022-11-15T11:48:23;5.27;;;1.87;;
9150;SDS011;4610;50.006;7.490;2022-11-15T11:51:05;2.23;;;1.60;;
9150;SDS011;4610;50.006;7.490;2022-11-15T11:53:39;3.03;;;1.83;;
9150;SDS011;4610;50.006;7.490;2022-11-15T11:56:13;3.37;;;2.10;;
9150;SDS011;4610;50.006;7.490;2022-11-15T11:58:44;2.83;;;1.63;;
9150;SDS011;4610;50.006;7.490;2022-11-15T12:01:14;3.37;;;1.60;;
9150;SDS011;4610;50.006;7.490;2022-11-15T12:03:50;3.50;;;1.90;;
9150;SDS011;4610;50.006;7.490;2022-11-15T12:06:23;2.73;;;1.80;;
9150;SDS011;4610;50.006;7.490;2022-11-15T12:08:56;3.70;;;2.10;;
9150;SDS011;4610;50.006;7.490;2022-11-15T12:11:29;4.57;;;2.27;;
9150;SDS011;4610;50.006;7.490;2022-11-15T12:14:03;2.77;;;1.97;;
9150;SDS011;4610;50.006;7.490;2022-11-15T12:16:37;3.53;;;2.00;;
9150;SDS011;4610;50.006;7.490;2022-11-15T12:19:08;4.43;;;2.37;;
9150;SDS011;4610;50.006;7.490;2022-11-15T12:21:36;3.83;;;2.23;;
9150;SDS011;4610;50.006;7.490;2022-11-15T12:24:12;2.80;;;1.80;;
9150;SDS011;4610;50.006;7.490;2022-11-15T12:26:45;3.00;;;1.73;;
9150;SDS011;4610;50.006;7.490;2022-11-15T12:29:16;6.90;;;2.10;;
9150;SDS011;4610;50.006;7.490;2022-11-15T12:31:48;4.03;;;2.03;;
9150;SDS011;4610;50.006;7.490;2022-11-15T12:34:33;3.73;;;2.17;;
9150;SDS011;4610;50.006;7.490;2022-11-15T12:40:16;2.57;;;1.80;;
9150;SDS011;4610;50.006;7.490;2022-11-15T12:42:57;4.07;;;1.60;;
9150;SDS011;4610;50.006;7.490;2022-11-15T12:45:27;4.50;;;1.60;;
9150;SDS011;4610;50.006;7.490;2022-11-15T12:47:56;2.10;;;1.43;;
9150;SDS011;4610;50.006;7.490;2022-11-15T12:50:54;2.40;;;1.50;;
9150;SDS011;4610;50.006;7.490;2022-11-15T12:53:26;2.77;;;1.50;;
9150;SDS011;4610;50.006;7.490;2022-11-15T12:56:08;4.20;;;1.63;;
9150;SDS011;4610;50.006;7.490;2022-11-15T12:58:49;2.07;;;1.43;;
9150;SDS011;4610;50.006;7.490;2022-11-15T13:04:24;4.37;;;1.70;;
9150;SDS011;4610;50.006;7.490;2022-11-15T13:06:54;1.30;;;1.20;;
9150;SDS011;4610;50.006;7.490;2022-11-15T13:15:35;7.10;;;1.40;;
9150;SDS011;4610;50.006;7.490;2022-11-15T13:21:03;2.00;;;1.40;;
9150;SDS011;4610;50.006;7.490;2022-11-15T13:23:59;4.37;;;1.80;;
9150;SDS011;4610;50.006;7.490;2022-11-15T13:26:25;3.30;;;1.60;;
9150;SDS011;4610;50.006;7.490;2022-11-15T13:28:52;4.90;;;1.50;;
9150;SDS011;4610;50.006;7.490;2022-11-15T13:31:28;3.63;;;1.60;;
9150;SDS011;4610;50.006;7.490;2022-11-15T13:34:01;3.40;;;1.70;;
9150;SDS011;4610;50.006;7.490;2022-11-15T13:36:30;2.23;;;1.23;;
9150;SDS011;4610;50.006;7.490;2022-11-15T13:39:02;4.17;;;1.50;;
9150;SDS011;4610;50.006;7.490;2022-11-15T13:41:31;2.97;;;1.63;;
9150;SDS011;4610;50.006;7.490;2022-11-15T13:43:59;2.87;;;1.30;;
9150;SDS011;4610;50.006;7.490;2022-11-15T13:46:27;1.47;;;1.20;;
9150;SDS011;4610;50.006;7.490;2022-11-15T13:48:56;5.03;;;1.90;;
9150;SDS011;4610;50.006;7.490;2022-11-15T13:51:27;3.67;;;1.80;;
9150;SDS011;4610;50.006;7.490;2022-11-15T13:54:03;3.27;;;1.97;;
9150;SDS011;4610;50.006;7.490;2022-11-15T13:56:38;5.33;;;1.70;;
9150;SDS011;4610;50.006;7.490;2022-11-15T13:59:09;2.63;;;1.50;;
9150;SDS011;4610;50.006;7.490;2022-11-15T14:01:36;2.77;;;1.27;;
9150;SDS011;4610;50.006;7.490;2022-11-15T14:04:03;2.60;;;1.40;;
9150;SDS011;4610;50.006;7.490;2022-11-15T14:06:30;3.23;;;1.60;;
9150;SDS011;4610;50.006;7.490;2022-11-15T14:09:03;2.60;;;1.63;;
9150;SDS011;4610;50.006;7.490;2022-11-15T14:11:51;4.10;;;1.77;;
9150;SDS011;4610;50.006;7.490;2022-11-15T14:14:21;3.20;;;1.60;;
9150;SDS011;4610;50.006;7.490;2022-11-15T14:16:50;3.20;;;1.50;;
9150;SDS011;4610;50.006;7.490;2022-11-15T14:19:35;7.77;;;1.57;;
9150;SDS011;4610;50.006;7.490;2022-11-15T14:22:14;4.30;;;1.70;;
9150;SDS011;4610;50.006;7.490;2022-11-15T14:25:03;5.00;;;1.60;;
9150;SDS011;4610;50.006;7.490;2022-11-15T14:27:33;4.10;;;1.43;;
9150;SDS011;4610;50.006;7.490;2022-11-15T14:30:00;3.93;;;1.87;;
9150;SDS011;4610;50.006;7.490;2022-11-15T14:32:28;5.17;;;1.67;;
9150;SDS011;4610;50.006;7.490;2022-11-15T14:34:57;4.37;;;1.83;;
9150;SDS011;4610;50.006;7.490;2022-11-15T14:37:26;3.97;;;2.00;;
9150;SDS011;4610;50.006;7.490;2022-11-15T14:39:55;4.43;;;2.00;;
9150;SDS011;4610;50.006;7.490;2022-11-15T14:42:22;3.73;;;1.90;;
9150;SDS011;4610;50.006;7.490;2022-11-15T14:44:49;12.57;;;4.87;;
9150;SDS011;4610;50.006;7.490;2022-11-15T14:47:17;19.27;;;6.20;;
9150;SDS011;4610;50.006;7.490;2022-11-15T14:49:44;17.87;;;6.20;;
9150;SDS011;4610;50.006;7.490;2022-11-15T14:52:22;14.83;;;4.93;;
9150;SDS011;4610;50.006;7.490;2022-11-15T14:54:52;17.67;;;5.90;;
9150;SDS011;4610;50.006;7.490;2022-11-15T14:57:20;16.57;;;5.77;;
9150;SDS011;4610;50.006;7.490;2022-11-15T14:59:47;15.37;;;5.57;;
9150;SDS011;4610;50.006;7.490;2022-11-15T15:02:15;15.90;;;5.70;;
9150;SDS011;4610;50.006;7.490;2022-11-15T15:04:44;14.53;;;4.77;;
9150;SDS011;4610;50.006;7.490;2022-11-15T15:07:11;16.23;;;5.73;;
9150;SDS011;4610;50.006;7.490;2022-11-15T15:09:38;19.50;;;6.57;;
9150;SDS011;4610;50.006;7.490;2022-11-15T15:12:10;18.77;;;6.23;;
9150;SDS011;4610;50.006;7.490;2022-11-15T15:14:41;17.37;;;6.37;;
9150;SDS011;4610;50.006;7.490;2022-11-15T15:17:08;16.10;;;5.60;;
9150;SDS011;4610;50.006;7.490;2022-11-15T15:19:35;17.23;;;6.70;;
9150;SDS011;4610;50.006;7.490;2022-11-15T15:22:02;19.27;;;7.17;;
9150;SDS011;4610;50.006;7.490;2022-11-15T15:24:29;15.33;;;5.93;;
9150;SDS011;4610;50.006;7.490;2022-11-15T15:26:56;19.73;;;6.90;;
9150;SDS011;4610;50.006;7.490;2022-11-15T15:29:24;18.97;;;7.03;;
9150;SDS011;4610;50.006;7.490;2022-11-15T15:31:51;22.77;;;7.80;;
9150;SDS011;4610;50.006;7.490;2022-11-15T15:34:17;14.53;;;6.07;;
9150;SDS011;4610;50.006;7.490;2022-11-15T15:42:54;18.13;;;7.17;;
9150;SDS011;4610;50.006;7.490;2022-11-15T15:45:22;21.37;;;8.10;;
9150;SDS011;4610;50.006;7.490;2022-11-15T15:47:52;20.33;;;7.43;;
9150;SDS011;4610;50.006;7.490;2022-11-15T15:50:23;24.33;;;9.43;;
9150;SDS011;4610;50.006;7.490;2022-11-15T15:52:51;18.70;;;7.07;;
9150;SDS011;4610;50.006;7.490;2022-11-15T15:55:19;19.87;;;7.50;;
9150;SDS011;4610;50.006;7.490;2022-11-15T15:57:46;18.50;;;6.83;;
9150;SDS011;4610;50.006;7.490;2022-11-15T16:00:13;15.70;;;6.03;;
9150;SDS011;4610;50.006;7.490;2022-11-15T16:02:43;19.60;;;7.43;;
9150;SDS011;4610;50.006;7.490;2022-11-15T16:05:10;22.50;;;7.77;;